Time;durP1;ratioP1;P1;durP2;ratioP2;P2;SDS_P1;SDS_P2;PMS_P1;PMS_P2;Temp;Humidity;BMP_temperature;BMP_pressure;BME280_temperature;BME280_humidity;BME280_pressure;Samples;Min_cycle;Max_cycle;Signal;HPM_P1;HPM_P2
2020/12/27 00:01:12;;;;;;;;;;;;;;;21.75;26.66;98233.06;5099580;28;1976;-74
2020/12/27 00:03:37;;;;;;;;;;;;;;;22.38;25.89;98231.13;5099823;28;844;-74
2020/12/27 00:06:03;;;;;;;;;;;;;;;22.62;25.28;98229.69;5097570;28;1547;-74
2020/12/27 00:08:28;;;;;;;;;;;;;;;22.56;25.56;98231.47;5079844;28;1503;-74
2020/12/27 00:10:54;;;;;;;;;;;;;;;22.60;25.12;98246.38;5091762;28;1688;-74
2020/12/27 00:13:19;;;;;;;;;;;;;;;22.22;25.83;98249.75;5099863;28;672;-74
2020/12/27 00:15:44;;;;;;;;;;;;;;;21.45;26.83;98239.00;5099898;28;939;-75
2020/12/27 00:18:10;;;;;;;;;;;;;;;21.57;26.80;98241.97;5099693;28;869;-74
2020/12/27 00:20:35;;;;;;;;;;;;;;;21.87;26.42;98242.13;5098148;28;1918;-74
2020/12/27 00:23:01;;;;;;;;;;;;;;;22.12;25.85;98247.97;5099845;28;676;-74
2020/12/27 00:25:26;;;;;;;;;;;;;;;22.41;25.84;98244.44;5099933;28;646;-74
2020/12/27 00:27:52;;;;;;;;;;;;;;;22.72;25.40;98234.28;5099800;28;571;-74
2020/12/27 00:30:17;;;;;;;;;;;;;;;22.18;25.77;98246.22;5099423;28;889;-74
2020/12/27 00:32:42;;;;;;;;;;;;;;;21.41;26.65;98238.31;5080180;28;1559;-74
2020/12/27 00:35:08;;;;;;;;;;;;;;;21.50;26.51;98241.31;5079505;28;937;-74
2020/12/27 00:37:33;;;;;;;;;;;;;;;21.62;26.95;98237.81;5079735;28;667;-74
2020/12/27 00:39:59;;;;;;;;;;;;;;;22.18;25.85;98246.22;5079710;28;1926;-74
2020/12/27 00:42:24;;;;;;;;;;;;;;;22.55;25.14;98258.25;5092329;28;1575;-74
2020/12/27 00:44:50;;;;;;;;;;;;;;;22.63;25.21;98248.28;5081888;28;1279;-74
2020/12/27 00:47:15;;;;;;;;;;;;;;;22.61;25.14;98240.22;5083291;28;905;-74
2020/12/27 00:49:50;;;;;;;;;;;;;;;22.01;25.71;98248.22;5103467;28;873;-74
2020/12/27 00:52:15;;;;;;;;;;;;;;;21.58;26.42;98242.78;5084293;28;1536;-74
2020/12/27 00:54:41;;;;;;;;;;;;;;;21.19;27.65;98250.06;5103360;28;658;-74
2020/12/27 00:57:06;;;;;;;;;;;;;;;22.22;25.91;98249.75;5103515;28;595;-74
2020/12/27 00:59:32;;;;;;;;;;;;;;;22.62;25.47;98241.03;5085555;28;1902;-74
2020/12/27 01:02:00;;;;;;;;;;;;;;;22.61;25.29;98245.13;5102316;28;1590;-74
2020/12/27 01:04:44;;;;;;;;;;;;;;;22.83;24.75;98240.44;5082976;28;659;-74
2020/12/27 01:07:10;;;;;;;;;;;;;;;21.78;26.02;98228.56;5082849;28;619;-73
2020/12/27 01:09:47;;;;;;;;;;;;;;;21.63;26.21;98233.75;5065603;28;1032;-74
2020/12/27 01:12:13;;;;;;;;;;;;;;;21.64;26.87;98240.22;5082811;28;649;-74
2020/12/27 01:14:38;;;;;;;;;;;;;;;22.39;25.74;98244.88;5066858;28;1478;-74
2020/12/27 01:17:24;;;;;;;;;;;;;;;22.52;25.35;98247.78;5102486;28;897;-74
2020/12/27 01:19:49;;;;;;;;;;;;;;;22.47;25.33;98245.47;5102958;28;1905;-74
2020/12/27 01:22:15;;;;;;;;;;;;;;;22.61;25.34;98251.56;5102850;28;662;-73
2020/12/27 01:25:12;;;;;;;;;;;;;;;22.22;25.29;98243.28;5070914;28;1780;-74
2020/12/27 01:27:38;;;;;;;;;;;;;;;21.85;26.22;98240.50;5065471;28;1341;-74
2020/12/27 01:30:04;;;;;;;;;;;;;;;21.19;27.07;98233.09;5065021;28;1375;-74
2020/12/27 01:32:40;;;;;;;;;;;;;;;21.91;26.50;98234.31;5064892;28;1144;-74
2020/12/27 01:35:06;;;;;;;;;;;;;;;22.25;25.94;98239.56;5075559;28;1549;-74
2020/12/27 01:37:31;;;;;;;;;;;;;;;22.42;25.64;98240.34;5068813;28;1536;-74
2020/12/27 01:39:57;;;;;;;;;;;;;;;22.59;25.37;98245.56;5065050;28;1898;-74
2020/12/27 01:42:22;;;;;;;;;;;;;;;22.73;25.06;98241.53;5065010;28;1266;-73
2020/12/27 01:44:48;;;;;;;;;;;;;;;22.06;25.76;98238.38;5065883;28;1474;-74
2020/12/27 01:47:34;;;;;;;;;;;;;;;21.40;26.77;98248.00;5081678;28;1062;-73
2020/12/27 01:50:00;;;;;;;;;;;;;;;21.44;26.73;98248.75;5082225;28;620;-74
2020/12/27 01:52:26;;;;;;;;;;;;;;;22.02;26.15;98240.50;5064883;28;1250;-74
2020/12/27 01:55:08;;;;;;;;;;;;;;;22.28;25.88;98239.50;5065700;28;1492;-74
2020/12/27 01:57:53;;;;;;;;;;;;;;;22.39;25.62;98238.44;5049644;28;1247;-74
2020/12/27 02:00:21;;;;;;;;;;;;;;;22.62;25.29;98226.84;5074320;28;1897;-74
2020/12/27 02:03:06;;;;;;;;;;;;;;;22.15;25.57;98232.94;5101559;28;1056;-74
2020/12/27 02:05:32;;;;;;;;;;;;;;;21.50;26.57;98235.66;5066706;28;1642;-74
2020/12/27 02:07:58;;;;;;;;;;;;;;;21.38;26.55;98237.13;5101693;28;1709;-74
2020/12/27 02:10:49;;;;;;;;;;;;;;;21.82;26.81;98247.06;5084399;28;1300;-74
2020/12/27 02:13:15;;;;;;;;;;;;;;;22.16;25.76;98237.34;5101831;28;610;-74
2020/12/27 02:15:40;;;;;;;;;;;;;;;22.34;25.74;98251.09;5101463;28;909;-74
2020/12/27 02:18:24;;;;;;;;;;;;;;;22.47;25.58;98256.81;5099683;28;1336;-74
2020/12/27 02:20:50;;;;;;;;;;;;;;;22.57;25.32;98250.88;5084274;28;1910;-73
2020/12/27 02:23:20;;;;;;;;;;;;;;;21.83;26.14;98259.97;5084321;28;1366;-74
2020/12/27 02:25:51;;;;;;;;;;;;;;;21.59;26.02;98255.69;5084343;28;1139;-74
2020/12/27 02:28:24;;;;;;;;;;;;;;;21.30;26.91;98256.31;5082615;28;1508;-74
2020/12/27 02:30:50;;;;;;;;;;;;;;;21.89;26.31;98263.09;5083861;28;1137;-74
2020/12/27 02:33:16;;;;;;;;;;;;;;;22.35;25.44;98273.31;5101201;28;921;-74
2020/12/27 02:35:43;;;;;;;;;;;;;;;22.58;25.30;98263.00;5083711;28;1019;-74
2020/12/27 02:38:11;;;;;;;;;;;;;;;22.50;25.13;98264.47;5082162;28;1711;-74
2020/12/27 02:40:36;;;;;;;;;;;;;;;22.77;24.66;98267.75;5101636;28;1944;-74
2020/12/27 02:43:22;;;;;;;;;;;;;;;21.89;25.92;98265.13;5083359;28;1130;-74
2020/12/27 02:45:51;;;;;;;;;;;;;;;21.52;26.30;98247.38;5083585;28;1197;-74
2020/12/27 02:48:35;;;;;;;;;;;;;;;21.49;26.81;98268.03;5099052;28;1571;-74
2020/12/27 02:51:04;;;;;;;;;;;;;;;22.07;25.85;98262.66;5083679;28;1471;-74
2020/12/27 02:53:30;;;;;;;;;;;;;;;22.28;25.34;98273.50;5101099;28;583;-74
2020/12/27 02:55:56;;;;;;;;;;;;;;;22.60;25.11;98254.88;5083366;28;756;-74
2020/12/27 02:58:22;;;;;;;;;;;;;;;22.51;25.32;98249.03;5082755;28;1566;-73
2020/12/27 03:00:50;;;;;;;;;;;;;;;22.42;25.16;98261.00;5082731;28;1964;-74
2020/12/27 03:03:51;;;;;;;;;;;;;;;22.01;25.55;98258.75;5039102;28;1148;-74
2020/12/27 03:06:23;;;;;;;;;;;;;;;21.23;26.64;98262.09;5076407;28;1239;-74
2020/12/27 03:08:55;;;;;;;;;;;;;;;21.52;26.28;98258.69;5082973;28;1621;-74
2020/12/27 03:11:35;;;;;;;;;;;;;;;22.19;25.97;98253.50;5100859;28;629;-74
2020/12/27 03:14:02;;;;;;;;;;;;;;;22.58;25.05;98263.00;5083384;28;1205;-74
2020/12/27 03:16:28;;;;;;;;;;;;;;;22.57;25.08;98261.41;5083037;28;1410;-74
2020/12/27 03:19:23;;;;;;;;;;;;;;;22.64;24.95;98261.25;5046116;28;1009;-74
2020/12/27 03:21:58;;;;;;;;;;;;;;;22.19;25.30;98250.66;5077345;28;1993;-74
2020/12/27 03:24:41;;;;;;;;;;;;;;;21.47;26.16;98256.38;5062765;28;1019;-74
2020/12/27 03:27:06;;;;;;;;;;;;;;;21.49;26.46;98253.88;5063297;28;1355;-74
2020/12/27 03:29:32;;;;;;;;;;;;;;;21.90;26.14;98250.50;5083749;28;1500;-74
2020/12/27 03:31:58;;;;;;;;;;;;;;;22.22;25.61;98255.41;5083118;28;1159;-74
2020/12/27 03:34:24;;;;;;;;;;;;;;;22.55;25.09;98253.38;5082602;28;1241;-74
2020/12/27 03:36:50;;;;;;;;;;;;;;;22.75;24.87;98261.75;5082947;28;1292;-74
2020/12/27 03:39:44;;;;;;;;;;;;;;;22.90;24.48;98267.88;5098228;28;1902;-74
2020/12/27 03:42:35;;;;;;;;;;;;;;;21.81;25.76;98267.31;5076669;28;1099;-74
2020/12/27 03:45:05;;;;;;;;;;;;;;;21.41;26.21;98261.75;5082880;28;1201;-74
2020/12/27 03:47:49;;;;;;;;;;;;;;;21.46;26.96;98263.28;5099955;28;951;-74
2020/12/27 03:50:22;;;;;;;;;;;;;;;22.20;25.70;98268.47;5080445;28;1555;-73
2020/12/27 03:52:54;;;;;;;;;;;;;;;22.65;24.95;98268.50;5082671;28;1407;-74
2020/12/27 03:55:31;;;;;;;;;;;;;;;22.73;25.05;98269.09;5100184;28;638;-74
2020/12/27 03:58:09;;;;;;;;;;;;;;;21.93;25.85;98271.50;5082675;28;1227;-74
2020/12/27 04:00:49;;;;;;;;;;;;;;;21.22;26.48;98266.16;5081052;28;1914;-74
2020/12/27 04:03:20;;;;;;;;;;;;;;;21.54;26.27;98270.34;5079049;28;1284;-74
2020/12/27 04:05:46;;;;;;;;;;;;;;;21.76;26.72;98270.66;5062293;28;1194;-74
2020/12/27 04:08:14;;;;;;;;;;;;;;;22.32;25.55;98273.41;5062881;28;1353;-74
2020/12/27 04:10:44;;;;;;;;;;;;;;;22.58;24.97;98274.34;5062625;28;1344;-74
2020/12/27 04:13:09;;;;;;;;;;;;;;;22.75;24.85;98280.81;5077455;28;1576;-74
2020/12/27 04:15:36;;;;;;;;;;;;;;;22.52;25.07;98304.50;5082557;28;1266;-74
2020/12/27 04:18:09;;;;;;;;;;;;;;;21.79;25.69;98301.75;5081979;28;1355;-74
2020/12/27 04:21:00;;;;;;;;;;;;;;;21.43;26.37;98298.09;5084375;28;1906;-74
2020/12/27 04:23:26;;;;;;;;;;;;;;;21.36;26.92;98292.59;5066063;28;1252;-74
2020/12/27 04:25:51;;;;;;;;;;;;;;;21.96;26.35;98284.78;5066556;28;1177;-74
2020/12/27 04:28:17;;;;;;;;;;;;;;;22.30;25.59;98299.38;5066653;28;1339;-74
2020/12/27 04:30:43;;;;;;;;;;;;;;;22.67;25.02;98305.72;5066219;28;1190;-74
2020/12/27 04:33:29;;;;;;;;;;;;;;;22.79;24.92;98307.81;5075633;28;986;-74
2020/12/27 04:36:17;;;;;;;;;;;;;;;22.96;24.58;98293.66;5065726;28;1371;-74
2020/12/27 04:38:44;;;;;;;;;;;;;;;22.17;25.44;98297.66;5066118;28;996;-74
2020/12/27 04:41:12;;;;;;;;;;;;;;;21.50;26.60;98295.13;5066130;28;1983;-74
2020/12/27 04:43:39;;;;;;;;;;;;;;;21.54;26.63;98298.66;5065882;28;1245;-74
2020/12/27 04:46:05;;;;;;;;;;;;;;;21.33;27.14;98288.59;5049703;28;1264;-74
2020/12/27 04:48:33;;;;;;;;;;;;;;;21.94;26.13;98287.25;5049507;28;1348;-73
2020/12/27 04:51:17;;;;;;;;;;;;;;;22.34;25.27;98294.41;5082963;28;829;-74
2020/12/27 04:53:49;;;;;;;;;;;;;;;22.52;25.39;98281.81;5065901;28;1226;-74
2020/12/27 04:56:24;;;;;;;;;;;;;;;22.80;24.64;98281.06;5050657;28;1195;-74
2020/12/27 04:59:09;;;;;;;;;;;;;;;22.84;24.58;98281.75;5066098;28;1249;-74
2020/12/27 05:01:38;;;;;;;;;;;;;;;22.73;24.63;98280.44;5065581;28;1973;-74
2020/12/27 05:04:09;;;;;;;;;;;;;;;21.86;26.08;98286.63;5065020;28;1410;-74
2020/12/27 05:06:54;;;;;;;;;;;;;;;21.18;27.10;98282.41;5065399;28;1320;-73
2020/12/27 05:09:28;;;;;;;;;;;;;;;21.69;26.66;98282.97;5065679;28;934;-74
2020/12/27 05:11:53;;;;;;;;;;;;;;;22.12;25.53;98276.31;5065681;28;1282;-74
2020/12/27 05:14:21;;;;;;;;;;;;;;;22.44;25.14;98274.75;5065352;28;1260;-74
2020/12/27 05:16:52;;;;;;;;;;;;;;;22.57;24.90;98267.88;5065423;28;1222;-74
2020/12/27 05:19:21;;;;;;;;;;;;;;;22.59;24.97;98267.47;5065194;28;1158;-73
2020/12/27 05:21:46;;;;;;;;;;;;;;;22.33;25.17;98280.69;5048341;28;1898;-73
2020/12/27 05:24:31;;;;;;;;;;;;;;;21.48;26.58;98283.44;5065511;28;1157;-74
2020/12/27 05:27:14;;;;;;;;;;;;;;;21.30;26.72;98287.47;5064986;28;1321;-74
2020/12/27 05:30:01;;;;;;;;;;;;;;;21.49;26.96;98280.16;5075156;28;1096;-73
2020/12/27 05:32:45;;;;;;;;;;;;;;;22.04;25.84;98280.56;5081964;28;588;-73
2020/12/27 05:35:29;;;;;;;;;;;;;;;22.48;25.20;98283.94;5082191;28;1047;-74
2020/12/27 05:37:59;;;;;;;;;;;;;;;22.47;25.21;98303.00;5064544;28;1306;-73
2020/12/27 05:40:43;;;;;;;;;;;;;;;22.43;25.29;98295.81;5082179;28;1922;-74
2020/12/27 05:43:18;;;;;;;;;;;;;;;21.60;26.23;98279.94;5065060;28;1359;-73
2020/12/27 05:46:07;;;;;;;;;;;;;;;21.18;26.80;98293.72;5065265;28;1213;-74
2020/12/27 05:48:33;;;;;;;;;;;;;;;21.59;26.56;98298.16;5064779;28;1300;-74
2020/12/27 05:51:01;;;;;;;;;;;;;;;22.12;25.99;98299.00;5064630;28;1257;-73
2020/12/27 05:53:27;;;;;;;;;;;;;;;22.52;25.33;98298.81;5064380;28;1266;-74
2020/12/27 05:55:58;;;;;;;;;;;;;;;22.89;24.65;98294.63;5049054;28;1353;-74
2020/12/27 05:58:26;;;;;;;;;;;;;;;22.19;25.51;98315.84;5064693;28;1366;-74
2020/12/27 06:01:04;;;;;;;;;;;;;;;21.62;26.18;98297.28;5064592;28;1906;-73
2020/12/27 06:03:30;;;;;;;;;;;;;;;20.92;27.43;98297.47;5048026;28;949;-74
2020/12/27 06:06:01;;;;;;;;;;;;;;;21.67;26.88;98318.63;5047780;28;1190;-74
2020/12/27 06:08:53;;;;;;;;;;;;;;;22.25;25.59;98336.75;5063759;28;1323;-74
2020/12/27 06:11:22;;;;;;;;;;;;;;;22.56;25.40;98310.88;5064082;28;1470;-74
2020/12/27 06:14:15;;;;;;;;;;;;;;;22.75;24.84;98324.16;5064106;28;1068;-74
2020/12/27 06:17:13;;;;;;;;;;;;;;;22.74;25.01;98333.94;5081298;28;938;-74
2020/12/27 06:19:59;;;;;;;;;;;;;;;22.91;24.40;98348.13;5080776;28;1980;-74
2020/12/27 06:22:31;;;;;;;;;;;;;;;22.02;25.74;98345.34;5063625;28;1472;-73
2020/12/27 06:25:17;;;;;;;;;;;;;;;21.51;26.40;98344.88;5063619;28;1525;-73
2020/12/27 06:27:43;;;;;;;;;;;;;;;21.27;26.90;98347.72;5064154;28;1307;-73
2020/12/27 06:30:09;;;;;;;;;;;;;;;21.53;26.52;98343.19;5064158;28;1163;-74
2020/12/27 06:32:59;;;;;;;;;;;;;;;21.88;26.29;98334.34;5064054;28;1067;-74
2020/12/27 06:35:35;;;;;;;;;;;;;;;22.21;25.57;98347.38;5047185;28;1374;-74
2020/12/27 06:38:01;;;;;;;;;;;;;;;22.46;25.33;98352.44;5063763;28;1161;-74
2020/12/27 06:40:45;;;;;;;;;;;;;;;22.52;25.17;98356.34;5063852;28;1977;-73
2020/12/27 06:43:22;;;;;;;;;;;;;;;22.17;25.77;98352.31;5063152;28;1292;-73
2020/12/27 06:46:27;;;;;;;;;;;;;;;21.43;26.92;98366.06;5062362;28;1352;-73
2020/12/27 06:49:13;;;;;;;;;;;;;;;21.14;27.49;98377.91;5073395;28;1014;-74
2020/12/27 06:52:13;;;;;;;;;;;;;;;22.15;26.02;98379.50;5063721;28;1277;-74
2020/12/27 06:54:59;;;;;;;;;;;;;;;22.50;25.41;98377.88;5080614;28;873;-73
2020/12/27 06:57:45;;;;;;;;;;;;;;;22.72;25.02;98378.94;5063321;28;1501;-74
2020/12/27 07:00:33;;;;;;;;;;;;;;;22.07;25.51;98415.66;5080386;28;1969;-74
2020/12/27 07:03:21;;;;;;;;;;;;;;;21.59;26.11;98383.09;5063655;28;1136;-73
2020/12/27 07:05:47;;;;;;;;;;;;;;;21.33;26.84;98390.50;5080361;28;975;-73
2020/12/27 07:08:16;;;;;;;;;;;;;;;21.91;26.31;98384.47;5080373;28;910;-74
2020/12/27 07:10:46;;;;;;;;;;;;;;;22.27;25.63;98379.59;5080754;28;935;-74
2020/12/27 07:13:12;;;;;;;;;;;;;;;22.60;25.42;98385.34;5080462;28;607;-73
2020/12/27 07:15:49;;;;;;;;;;;;;;;22.67;24.97;98378.69;5080803;28;634;-74
2020/12/27 07:18:21;;;;;;;;;;;;;;;22.15;25.36;98312.28;5080479;28;964;-74
2020/12/27 07:20:48;;;;;;;;;;;;;;;22.01;25.85;98366.44;5063546;28;1964;-74
2020/12/27 07:23:18;;;;;;;;;;;;;;;21.69;26.13;98362.25;5062741;28;1139;-74
2020/12/27 07:25:43;;;;;;;;;;;;;;;21.33;26.61;98357.31;5079906;28;1109;-73
2020/12/27 07:28:09;;;;;;;;;;;;;;;21.96;26.11;98355.59;5079882;28;939;-74
2020/12/27 07:30:35;;;;;;;;;;;;;;;22.09;25.73;98356.53;5080236;28;817;-73
2020/12/27 07:33:04;;;;;;;;;;;;;;;22.54;25.29;98353.06;5062920;28;662;-74
2020/12/27 07:35:29;;;;;;;;;;;;;;;22.66;25.28;98355.19;5080196;28;694;-74
2020/12/27 07:38:01;;;;;;;;;;;;;;;22.44;25.03;98359.81;5080525;28;683;-74
2020/12/27 07:40:30;;;;;;;;;;;;;;;21.41;26.68;98345.88;5080210;28;1898;-74
2020/12/27 07:42:55;;;;;;;;;;;;;;;21.83;25.82;98344.97;5079452;28;1180;-73
2020/12/27 07:45:22;;;;;;;;;;;;;;;21.67;26.34;98344.13;5079829;28;951;-73
2020/12/27 07:47:47;;;;;;;;;;;;;;;21.64;26.81;98357.09;5080065;28;614;-74
2020/12/27 07:50:13;;;;;;;;;;;;;;;22.19;25.74;98366.84;5080160;28;718;-73
2020/12/27 07:52:48;;;;;;;;;;;;;;;22.41;25.28;98363.50;5079801;28;948;-74
2020/12/27 07:55:20;;;;;;;;;;;;;;;22.46;25.46;98363.78;5079507;28;831;-74
2020/12/27 07:57:46;;;;;;;;;;;;;;;22.54;25.08;98358.75;5062521;28;1007;-74
2020/12/27 08:00:11;;;;;;;;;;;;;;;22.55;25.03;98354.66;5080203;28;1969;-74
2020/12/27 08:02:43;;;;;;;;;;;;;;;21.67;26.53;98361.91;5079803;28;678;-73
2020/12/27 08:05:14;;;;;;;;;;;;;;;21.58;26.53;98361.69;5062484;28;595;-74
2020/12/27 08:07:40;;;;;;;;;;;;;;;21.48;26.83;98362.72;5079412;28;947;-74
2020/12/27 08:10:34;;;;;;;;;;;;;;;21.99;26.07;98351.91;5079542;28;935;-73
2020/12/27 08:13:00;;;;;;;;;;;;;;;22.39;25.59;98355.47;5066890;28;1341;-73
2020/12/27 08:15:27;;;;;;;;;;;;;;;22.56;25.20;98339.25;5062363;28;639;-73
2020/12/27 08:17:53;;;;;;;;;;;;;;;22.64;24.91;98340.66;5079735;28;654;-73
2020/12/27 08:20:18;;;;;;;;;;;;;;;22.57;24.92;98346.50;5079494;28;1961;-74
2020/12/27 08:22:44;;;;;;;;;;;;;;;21.61;26.38;98349.50;5079197;28;924;-74
2020/12/27 08:25:10;;;;;;;;;;;;;;;21.28;26.88;98338.00;5079300;28;839;-74
2020/12/27 08:27:36;;;;;;;;;;;;;;;21.73;26.90;98334.66;5079539;28;832;-74
2020/12/27 08:30:01;;;;;;;;;;;;;;;22.32;25.75;98341.44;5079471;28;622;-74
2020/12/27 08:32:27;;;;;;;;;;;;;;;22.74;24.91;98339.59;5079710;28;607;-74
2020/12/27 08:34:52;;;;;;;;;;;;;;;22.70;24.89;98350.22;5079833;28;586;-74
2020/12/27 08:37:17;;;;;;;;;;;;;;;22.62;25.20;98337.47;5079087;28;1079;-74
2020/12/27 08:39:48;;;;;;;;;;;;;;;21.91;26.14;98339.94;5062165;28;936;-72
2020/12/27 08:42:19;;;;;;;;;;;;;;;21.58;26.21;98356.03;5079257;28;1104;-74
2020/12/27 08:44:45;;;;;;;;;;;;;;;21.15;27.29;98345.53;5079307;28;690;-73
2020/12/27 08:47:13;;;;;;;;;;;;;;;21.67;26.93;98347.75;5079335;28;722;-74
2020/12/27 08:49:38;;;;;;;;;;;;;;;22.14;25.98;98341.09;5062046;28;633;-74
2020/12/27 08:52:05;;;;;;;;;;;;;;;22.31;25.59;98339.84;5079111;28;873;-74
2020/12/27 08:54:30;;;;;;;;;;;;;;;22.59;25.22;98333.50;5078894;28;790;-74
2020/12/27 08:56:56;;;;;;;;;;;;;;;22.74;25.06;98338.78;5061908;28;912;-74
2020/12/27 08:59:21;;;;;;;;;;;;;;;21.85;25.99;98333.97;5061816;28;904;-74
2020/12/27 09:01:50;;;;;;;;;;;;;;;21.46;26.77;98331.22;5045133;28;1918;-74
2020/12/27 09:04:21;;;;;;;;;;;;;;;21.43;26.77;98315.09;5061976;28;1118;-74
2020/12/27 09:06:53;;;;;;;;;;;;;;;21.15;27.51;98311.59;5078921;28;877;-74
2020/12/27 09:09:22;;;;;;;;;;;;;;;21.98;26.42;98300.13;5081969;28;954;-74
2020/12/27 09:11:48;;;;;;;;;;;;;;;22.32;25.77;98308.22;5082607;28;843;-74
2020/12/27 09:14:32;;;;;;;;;;;;;;;22.56;25.23;98306.00;5082646;28;693;-74
2020/12/27 09:17:22;;;;;;;;;;;;;;;22.56;25.47;98317.34;5082626;28;484;-73
2020/12/27 09:19:47;;;;;;;;;;;;;;;21.84;26.33;98318.22;5082652;28;674;-75
2020/12/27 09:22:13;;;;;;;;;;;;;;;21.56;26.83;98325.31;5082432;28;1093;-73
2020/12/27 09:24:38;;;;;;;;;;;;;;;21.47;27.54;98304.50;5064720;28;825;-74
2020/12/27 09:27:04;;;;;;;;;;;;;;;22.16;25.99;98299.72;5082686;28;867;-74
2020/12/27 09:29:30;;;;;;;;;;;;;;;22.51;25.45;98297.25;5082565;28;673;-74
2020/12/27 09:32:05;;;;;;;;;;;;;;;22.71;25.28;98289.41;5104768;28;1194;-74
2020/12/27 09:34:31;;;;;;;;;;;;;;;22.16;25.77;98288.38;5108830;28;1165;-74
2020/12/27 09:36:56;;;;;;;;;;;;;;;21.55;26.77;98294.59;5110876;28;1109;-74
2020/12/27 09:39:28;;;;;;;;;;;;;;;21.32;27.24;98276.50;5086042;28;1039;-74
2020/12/27 09:41:54;;;;;;;;;;;;;;;21.60;26.83;98288.41;5107469;28;1985;-74
2020/12/27 09:44:19;;;;;;;;;;;;;;;21.97;26.69;98283.56;5114312;28;1113;-74
2020/12/27 09:46:46;;;;;;;;;;;;;;;22.38;26.04;98276.50;5097892;28;1378;-74
2020/12/27 09:49:17;;;;;;;;;;;;;;;22.54;25.85;98280.13;5122861;28;647;-74
2020/12/27 09:51:43;;;;;;;;;;;;;;;22.39;25.62;98278.13;5122414;28;868;-74
2020/12/27 09:54:08;;;;;;;;;;;;;;;21.55;27.17;98275.59;5122411;28;902;-74
2020/12/27 09:56:40;;;;;;;;;;;;;;;21.68;26.88;98264.38;5123288;28;1018;-73
2020/12/27 09:59:06;;;;;;;;;;;;;;;21.53;27.04;98268.78;5105253;28;904;-74
2020/12/27 10:01:31;;;;;;;;;;;;;;;21.98;26.39;98265.31;5122395;28;1970;-74
2020/12/27 10:03:57;;;;;;;;;;;;;;;22.06;26.39;98255.41;5122668;28;686;-74
2020/12/27 10:06:22;;;;;;;;;;;;;;;22.57;25.66;98250.06;5122159;28;990;-74
2020/12/27 10:08:48;;;;;;;;;;;;;;;22.68;25.45;98256.25;5122653;28;865;-74
2020/12/27 10:11:13;;;;;;;;;;;;;;;21.95;26.27;98246.34;5122632;28;1089;-73
2020/12/27 10:13:38;;;;;;;;;;;;;;;21.38;26.91;98253.31;5104565;28;738;-74
2020/12/27 10:16:04;;;;;;;;;;;;;;;21.16;27.55;98239.59;5122193;28;651;-74
2020/12/27 10:18:29;;;;;;;;;;;;;;;21.83;27.03;98242.19;5122418;28;687;-73
2020/12/27 10:20:55;;;;;;;;;;;;;;;22.31;26.10;98235.75;5122354;28;1906;-74
2020/12/27 10:23:20;;;;;;;;;;;;;;;22.53;25.61;98232.34;5087108;28;978;-74
2020/12/27 10:25:46;;;;;;;;;;;;;;;22.68;25.35;98227.91;5122194;28;868;-74
2020/12/27 10:28:11;;;;;;;;;;;;;;;22.29;25.95;98229.75;5104401;28;633;-75
2020/12/27 10:30:37;;;;;;;;;;;;;;;21.48;26.96;98221.94;5118631;28;1066;-73
2020/12/27 10:33:02;;;;;;;;;;;;;;;21.35;27.31;98217.41;5101406;28;664;-73
2020/12/27 10:35:28;;;;;;;;;;;;;;;21.60;27.44;98214.81;5067084;28;837;-73
2020/12/27 10:37:53;;;;;;;;;;;;;;;22.15;26.53;98207.44;5083522;28;840;-74
2020/12/27 10:40:19;;;;;;;;;;;;;;;22.21;26.29;98216.19;5083842;28;1906;-74
2020/12/27 10:42:44;;;;;;;;;;;;;;;22.50;26.05;98202.06;5101470;28;1179;-74
2020/12/27 10:45:09;;;;;;;;;;;;;;;22.34;25.96;98198.03;5083824;28;1201;-74
2020/12/27 10:47:35;;;;;;;;;;;;;;;22.03;26.41;98199.63;5101172;28;666;-74
2020/12/27 10:50:00;;;;;;;;;;;;;;;21.28;27.46;98196.47;5100932;28;1071;-74
2020/12/27 10:52:26;;;;;;;;;;;;;;;21.55;27.48;98192.66;5100847;28;918;-74
2020/12/27 10:54:51;;;;;;;;;;;;;;;21.97;26.93;98190.88;5100973;28;842;-74
2020/12/27 10:57:17;;;;;;;;;;;;;;;22.22;26.46;98187.41;5101277;28;599;-75
2020/12/27 10:59:45;;;;;;;;;;;;;;;22.34;25.98;98181.00;5100921;28;611;-73
2020/12/27 11:02:10;;;;;;;;;;;;;;;22.62;25.85;98175.78;5101108;28;1968;-74
2020/12/27 11:04:35;;;;;;;;;;;;;;;22.28;25.98;98182.81;5100680;28;979;-74
2020/12/27 11:07:01;;;;;;;;;;;;;;;21.74;26.57;98194.66;5100624;28;917;-74
2020/12/27 11:09:26;;;;;;;;;;;;;;;20.79;27.88;98185.00;5100742;28;936;-74
2020/12/27 11:11:52;;;;;;;;;;;;;;;21.38;27.68;98186.19;5100910;28;690;-74
2020/12/27 11:14:17;;;;;;;;;;;;;;;21.68;27.45;98173.75;5100830;28;658;-74
2020/12/27 11:16:46;;;;;;;;;;;;;;;22.19;26.55;98168.47;5100908;28;667;-74
2020/12/27 11:19:12;;;;;;;;;;;;;;;22.68;25.59;98165.50;5100480;28;954;-74
2020/12/27 11:21:43;;;;;;;;;;;;;;;22.79;25.41;98154.63;5100123;28;1894;-74
2020/12/27 11:24:09;;;;;;;;;;;;;;;21.18;27.68;98163.56;5100510;28;939;-74
2020/12/27 11:26:34;;;;;;;;;;;;;;;21.29;27.79;98152.78;5100771;28;666;-73
2020/12/27 11:29:00;;;;;;;;;;;;;;;21.36;27.63;98151.88;5100816;28;721;-74
2020/12/27 11:31:25;;;;;;;;;;;;;;;21.80;27.14;98158.88;5099792;28;809;-74
2020/12/27 11:33:51;;;;;;;;;;;;;;;22.33;26.43;98156.75;5100119;28;939;-74
2020/12/27 11:36:16;;;;;;;;;;;;;;;22.47;25.82;98161.22;5100345;28;994;-73
2020/12/27 11:38:42;;;;;;;;;;;;;;;22.72;25.68;98154.84;5100106;28;670;-74
2020/12/27 11:41:07;;;;;;;;;;;;;;;22.02;26.37;98152.66;5100222;28;1898;-74
2020/12/27 11:43:33;;;;;;;;;;;;;;;21.24;27.34;98139.19;5100188;28;1214;-74
2020/12/27 11:45:59;;;;;;;;;;;;;;;21.54;27.01;98152.25;5100185;28;690;-74
2020/12/27 11:48:24;;;;;;;;;;;;;;;21.22;28.01;98135.97;5099843;28;993;-73
2020/12/27 11:50:53;;;;;;;;;;;;;;;22.04;26.88;98133.22;5100294;28;892;-74
2020/12/27 11:53:19;;;;;;;;;;;;;;;22.21;26.67;98129.13;5100174;28;972;-74
2020/12/27 11:55:45;;;;;;;;;;;;;;;22.38;26.44;98123.41;5100320;28;634;-73
2020/12/27 11:58:10;;;;;;;;;;;;;;;22.06;26.75;98127.88;5100316;28;714;-74
2020/12/27 12:00:35;;;;;;;;;;;;;;;21.57;27.30;98110.94;5100146;28;1973;-74
2020/12/27 12:03:01;;;;;;;;;;;;;;;21.47;27.60;98100.66;5099944;28;1034;-74
2020/12/27 12:05:26;;;;;;;;;;;;;;;21.91;27.08;98123.81;5099670;28;891;-73
2020/12/27 12:07:52;;;;;;;;;;;;;;;22.44;26.42;98098.97;5099889;28;1087;-74
2020/12/27 12:10:18;;;;;;;;;;;;;;;22.48;26.07;98105.31;5100148;28;618;-73
2020/12/27 12:12:43;;;;;;;;;;;;;;;22.38;26.24;98106.41;5100049;28;750;-74
2020/12/27 12:15:09;;;;;;;;;;;;;;;22.31;26.03;98102.53;5100476;28;658;-75
2020/12/27 12:17:34;;;;;;;;;;;;;;;21.77;27.30;98108.81;5099919;28;666;-74
2020/12/27 12:19:59;;;;;;;;;;;;;;;21.54;27.34;98106.16;5099446;28;1988;-74
2020/12/27 12:22:25;;;;;;;;;;;;;;;21.20;27.97;98107.34;5100102;28;863;-74
2020/12/27 12:24:50;;;;;;;;;;;;;;;21.75;27.45;98094.28;5099774;28;1021;-73
2020/12/27 12:27:16;;;;;;;;;;;;;;;22.38;26.36;98097.88;5100214;28;590;-74
2020/12/27 12:29:41;;;;;;;;;;;;;;;22.83;25.57;98101.41;5082505;28;1122;-74
2020/12/27 12:32:07;;;;;;;;;;;;;;;22.63;26.22;98100.81;5100030;28;669;-73
2020/12/27 12:34:32;;;;;;;;;;;;;;;21.91;26.77;98107.63;5099426;28;998;-74
2020/12/27 12:36:58;;;;;;;;;;;;;;;21.39;27.66;98108.53;5099505;28;818;-74
2020/12/27 12:39:23;;;;;;;;;;;;;;;21.20;27.98;98104.50;5099850;28;949;-74
2020/12/27 12:41:49;;;;;;;;;;;;;;;21.65;27.76;98100.22;5099424;28;1913;-74
2020/12/27 12:44:14;;;;;;;;;;;;;;;22.14;27.16;98101.00;5102890;28;652;-74
2020/12/27 12:46:40;;;;;;;;;;;;;;;22.33;26.42;98094.38;5103237;28;990;-74
2020/12/27 12:49:05;;;;;;;;;;;;;;;22.73;25.73;98079.84;5103299;28;875;-74
2020/12/27 12:51:30;;;;;;;;;;;;;;;21.69;27.26;98090.38;5103633;28;989;-74
2020/12/27 12:53:56;;;;;;;;;;;;;;;21.70;27.25;98074.19;5103714;28;685;-74
2020/12/27 12:56:21;;;;;;;;;;;;;;;21.65;27.33;98083.22;5103324;28;610;-73
2020/12/27 12:58:47;;;;;;;;;;;;;;;21.52;27.96;98077.50;5103656;28;697;-74
2020/12/27 13:01:12;;;;;;;;;;;;;;;21.96;27.10;98070.25;5103714;28;1922;-74
2020/12/27 13:03:41;;;;;;;;;;;;;;;22.35;26.76;98074.09;5102759;28;1026;-74
2020/12/27 13:06:13;;;;;;;;;;;;;;;22.60;26.10;98074.16;5103076;28;865;-74
2020/12/27 13:08:39;;;;;;;;;;;;;;;22.73;26.25;98076.22;5103250;28;872;-74
2020/12/27 13:11:04;;;;;;;;;;;;;;;21.67;27.37;98069.44;5103224;28;717;-74
2020/12/27 13:13:30;;;;;;;;;;;;;;;21.47;27.67;98063.88;5103010;28;681;-74
2020/12/27 13:15:55;;;;;;;;;;;;;;;21.37;27.82;98067.75;5103051;28;682;-74
2020/12/27 13:18:21;;;;;;;;;;;;;;;21.37;28.19;98062.09;5102650;28;857;-74